Mc Grath, Alaska
Current Conditions -  °F | °C
As of 10:00 AM on Thursday 23 Oct 2014 (Local Time) from PAMC Reporting Station
Broken Clouds Broken Clouds  
Wind Chill: 13°   Ceiling: 5000
Heat Index: 20°   Visibility: 10mi
Dew Point: 16°   Wind: 5mph
Humidity: 85%   Direction: 260°W
Pressure: 29.88"   Gusts: NA
Location:  63.1005°N, 155.153°W
Report Text: PAMC 231800Z 26004KT 10SM BKN050 M07/M09 A2988 RMK T10671089 VIA AUTODIAL
Loading
Personal Weather Stations






























Interactive Weather Map
Tropical Storm Tracking
New forecast layout! Learn more

10-Day Weather Forecast

Advertisements
Track Severe Weather on mobile